sensor_id;sensor_type;location;lat;lon;timestamp;P1;durP1;ratioP1;P2;durP2;ratioP2
73593;SDS011;64760;53.404;23.498;2024-02-21T00:01:58;5.28;;;3.33;;
73593;SDS011;64760;53.404;23.498;2024-02-21T00:04:24;3.75;;;2.92;;
73593;SDS011;64760;53.404;23.498;2024-02-21T00:06:51;3.83;;;1.75;;
73593;SDS011;64760;53.404;23.498;2024-02-21T00:09:18;2.88;;;2.60;;
73593;SDS011;64760;53.404;23.498;2024-02-21T00:11:45;4.57;;;2.47;;
73593;SDS011;64760;53.404;23.498;2024-02-21T00:14:13;3.97;;;1.92;;
73593;SDS011;64760;53.404;23.498;2024-02-21T00:16:40;2.63;;;1.38;;
73593;SDS011;64760;53.404;23.498;2024-02-21T00:19:06;6.07;;;2.78;;
73593;SDS011;64760;53.404;23.498;2024-02-21T00:21:32;4.97;;;2.55;;
73593;SDS011;64760;53.404;23.498;2024-02-21T00:23:58;5.65;;;2.95;;
73593;SDS011;64760;53.404;23.498;2024-02-21T00:26:25;5.65;;;3.03;;
73593;SDS011;64760;53.404;23.498;2024-02-21T00:28:51;5.95;;;3.08;;
73593;SDS011;64760;53.404;23.498;2024-02-21T00:31:19;6.20;;;2.70;;
73593;SDS011;64760;53.404;23.498;2024-02-21T00:33:45;5.75;;;3.22;;
73593;SDS011;64760;53.404;23.498;2024-02-21T00:36:12;5.55;;;1.45;;
73593;SDS011;64760;53.404;23.498;2024-02-21T00:38:38;6.45;;;3.00;;
73593;SDS011;64760;53.404;23.498;2024-02-21T00:41:05;6.32;;;2.97;;
73593;SDS011;64760;53.404;23.498;2024-02-21T00:43:31;3.47;;;1.35;;
73593;SDS011;64760;53.404;23.498;2024-02-21T00:45:57;3.08;;;1.55;;
73593;SDS011;64760;53.404;23.498;2024-02-21T00:48:24;6.22;;;3.20;;
73593;SDS011;64760;53.404;23.498;2024-02-21T00:50:50;7.72;;;3.50;;
73593;SDS011;64760;53.404;23.498;2024-02-21T00:53:17;6.05;;;2.95;;
73593;SDS011;64760;53.404;23.498;2024-02-21T00:55:44;5.18;;;2.38;;
73593;SDS011;64760;53.404;23.498;2024-02-21T00:58:10;6.05;;;2.53;;
73593;SDS011;64760;53.404;23.498;2024-02-21T01:00:37;4.30;;;2.25;;
73593;SDS011;64760;53.404;23.498;2024-02-21T01:03:03;2.70;;;1.45;;
73593;SDS011;64760;53.404;23.498;2024-02-21T01:05:30;3.33;;;1.95;;
73593;SDS011;64760;53.404;23.498;2024-02-21T01:07:56;3.30;;;1.90;;
73593;SDS011;64760;53.404;23.498;2024-02-21T01:10:23;5.05;;;2.70;;
73593;SDS011;64760;53.404;23.498;2024-02-21T01:12:49;6.60;;;3.42;;
73593;SDS011;64760;53.404;23.498;2024-02-21T01:15:16;4.75;;;2.42;;
73593;SDS011;64760;53.404;23.498;2024-02-21T01:17:42;3.47;;;1.80;;
73593;SDS011;64760;53.404;23.498;2024-02-21T01:20:08;4.35;;;1.60;;
73593;SDS011;64760;53.404;23.498;2024-02-21T01:22:35;4.35;;;2.60;;
73593;SDS011;64760;53.404;23.498;2024-02-21T01:25:01;5.68;;;1.92;;
73593;SDS011;64760;53.404;23.498;2024-02-21T01:27:28;6.72;;;2.47;;
73593;SDS011;64760;53.404;23.498;2024-02-21T01:29:55;6.78;;;3.58;;
73593;SDS011;64760;53.404;23.498;2024-02-21T01:32:21;2.22;;;1.30;;
73593;SDS011;64760;53.404;23.498;2024-02-21T01:34:50;12.23;;;5.10;;
73593;SDS011;64760;53.404;23.498;2024-02-21T01:37:17;6.05;;;3.50;;
73593;SDS011;64760;53.404;23.498;2024-02-21T01:39:48;16.55;;;6.05;;
73593;SDS011;64760;53.404;23.498;2024-02-21T01:42:26;2.38;;;1.63;;
73593;SDS011;64760;53.404;23.498;2024-02-21T01:45:01;2.90;;;1.70;;
73593;SDS011;64760;53.404;23.498;2024-02-21T01:47:31;4.95;;;2.45;;
73593;SDS011;64760;53.404;23.498;2024-02-21T01:49:59;4.05;;;1.75;;
73593;SDS011;64760;53.404;23.498;2024-02-21T01:52:25;2.65;;;1.48;;
73593;SDS011;64760;53.404;23.498;2024-02-21T01:54:52;3.72;;;2.00;;
73593;SDS011;64760;53.404;23.498;2024-02-21T01:57:18;2.33;;;2.00;;
73593;SDS011;64760;53.404;23.498;2024-02-21T01:59:45;4.03;;;1.60;;
73593;SDS011;64760;53.404;23.498;2024-02-21T02:02:12;3.42;;;1.77;;
73593;SDS011;64760;53.404;23.498;2024-02-21T02:04:38;5.25;;;1.52;;
73593;SDS011;64760;53.404;23.498;2024-02-21T02:07:06;4.72;;;2.10;;
73593;SDS011;64760;53.404;23.498;2024-02-21T02:09:33;1.42;;;0.90;;
73593;SDS011;64760;53.404;23.498;2024-02-21T02:12:00;4.75;;;1.73;;
73593;SDS011;64760;53.404;23.498;2024-02-21T02:14:28;2.85;;;1.83;;
73593;SDS011;64760;53.404;23.498;2024-02-21T02:16:54;4.55;;;2.10;;
73593;SDS011;64760;53.404;23.498;2024-02-21T02:19:22;1.42;;;1.13;;
73593;SDS011;64760;53.404;23.498;2024-02-21T02:21:51;1.33;;;0.88;;
73593;SDS011;64760;53.404;23.498;2024-02-21T02:26:50;2.67;;;1.40;;
73593;SDS011;64760;53.404;23.498;2024-02-21T02:29:17;4.03;;;2.00;;
73593;SDS011;64760;53.404;23.498;2024-02-21T02:31:43;3.92;;;1.42;;
73593;SDS011;64760;53.404;23.498;2024-02-21T02:34:10;1.20;;;0.95;;
73593;SDS011;64760;53.404;23.498;2024-02-21T02:36:36;3.30;;;1.73;;
73593;SDS011;64760;53.404;23.498;2024-02-21T02:39:02;0.98;;;0.77;;
73593;SDS011;64760;53.404;23.498;2024-02-21T02:41:29;2.22;;;0.73;;
73593;SDS011;64760;53.404;23.498;2024-02-21T02:43:55;2.85;;;1.02;;
73593;SDS011;64760;53.404;23.498;2024-02-21T02:46:22;1.73;;;0.52;;
73593;SDS011;64760;53.404;23.498;2024-02-21T02:48:48;2.20;;;1.17;;
73593;SDS011;64760;53.404;23.498;2024-02-21T02:51:14;2.38;;;0.90;;
73593;SDS011;64760;53.404;23.498;2024-02-21T02:53:41;2.40;;;1.50;;
73593;SDS011;64760;53.404;23.498;2024-02-21T02:56:07;2.58;;;1.05;;
73593;SDS011;64760;53.404;23.498;2024-02-21T02:58:40;2.30;;;1.27;;
73593;SDS011;64760;53.404;23.498;2024-02-21T03:01:06;2.90;;;1.05;;
73593;SDS011;64760;53.404;23.498;2024-02-21T03:03:33;2.88;;;1.20;;
73593;SDS011;64760;53.404;23.498;2024-02-21T03:05:59;4.15;;;1.63;;
73593;SDS011;64760;53.404;23.498;2024-02-21T03:08:26;3.88;;;2.00;;
73593;SDS011;64760;53.404;23.498;2024-02-21T03:10:52;6.32;;;2.20;;
73593;SDS011;64760;53.404;23.498;2024-02-21T03:13:18;8.73;;;3.50;;
73593;SDS011;64760;53.404;23.498;2024-02-21T03:15:45;8.90;;;3.55;;
73593;SDS011;64760;53.404;23.498;2024-02-21T03:18:11;5.53;;;2.70;;
73593;SDS011;64760;53.404;23.498;2024-02-21T03:20:38;6.65;;;3.53;;
73593;SDS011;64760;53.404;23.498;2024-02-21T03:23:05;1.92;;;1.45;;
73593;SDS011;64760;53.404;23.498;2024-02-21T03:25:31;5.15;;;2.28;;
73593;SDS011;64760;53.404;23.498;2024-02-21T03:27:57;5.63;;;2.58;;
73593;SDS011;64760;53.404;23.498;2024-02-21T03:30:24;6.35;;;2.53;;
73593;SDS011;64760;53.404;23.498;2024-02-21T03:32:50;3.28;;;1.50;;
73593;SDS011;64760;53.404;23.498;2024-02-21T03:35:17;6.35;;;1.63;;
73593;SDS011;64760;53.404;23.498;2024-02-21T03:37:44;2.63;;;1.58;;
73593;SDS011;64760;53.404;23.498;2024-02-21T03:42:38;4.82;;;2.33;;
73593;SDS011;64760;53.404;23.498;2024-02-21T03:45:04;3.25;;;1.60;;
73593;SDS011;64760;53.404;23.498;2024-02-21T03:47:31;6.60;;;2.88;;
73593;SDS011;64760;53.404;23.498;2024-02-21T03:49:57;9.23;;;5.00;;
73593;SDS011;64760;53.404;23.498;2024-02-21T03:52:25;6.63;;;3.42;;
73593;SDS011;64760;53.404;23.498;2024-02-21T03:54:51;6.22;;;3.00;;
73593;SDS011;64760;53.404;23.498;2024-02-21T03:57:18;5.18;;;2.30;;
73593;SDS011;64760;53.404;23.498;2024-02-21T03:59:44;9.02;;;4.30;;
73593;SDS011;64760;53.404;23.498;2024-02-21T04:02:11;8.85;;;4.20;;
73593;SDS011;64760;53.404;23.498;2024-02-21T04:04:37;12.10;;;4.50;;
73593;SDS011;64760;53.404;23.498;2024-02-21T04:07:03;16.05;;;6.35;;
73593;SDS011;64760;53.404;23.498;2024-02-21T04:09:32;18.02;;;6.60;;
73593;SDS011;64760;53.404;23.498;2024-02-21T04:12:01;17.00;;;7.32;;
73593;SDS011;64760;53.404;23.498;2024-02-21T04:14:27;17.58;;;8.32;;
73593;SDS011;64760;53.404;23.498;2024-02-21T04:16:54;16.42;;;8.00;;
73593;SDS011;64760;53.404;23.498;2024-02-21T04:19:20;24.80;;;10.75;;
73593;SDS011;64760;53.404;23.498;2024-02-21T04:21:46;15.75;;;8.57;;
73593;SDS011;64760;53.404;23.498;2024-02-21T04:24:16;20.63;;;8.77;;
73593;SDS011;64760;53.404;23.498;2024-02-21T04:26:42;23.00;;;9.98;;
73593;SDS011;64760;53.404;23.498;2024-02-21T04:29:10;29.13;;;12.48;;
73593;SDS011;64760;53.404;23.498;2024-02-21T04:31:37;15.38;;;7.38;;
73593;SDS011;64760;53.404;23.498;2024-02-21T04:34:03;8.82;;;5.03;;
73593;SDS011;64760;53.404;23.498;2024-02-21T04:36:30;11.45;;;5.57;;
73593;SDS011;64760;53.404;23.498;2024-02-21T04:38:57;13.65;;;6.65;;
73593;SDS011;64760;53.404;23.498;2024-02-21T04:41:24;12.85;;;7.18;;
73593;SDS011;64760;53.404;23.498;2024-02-21T04:43:50;41.30;;;17.80;;
73593;SDS011;64760;53.404;23.498;2024-02-21T04:46:16;18.20;;;8.98;;
73593;SDS011;64760;53.404;23.498;2024-02-21T04:48:43;26.17;;;11.95;;
73593;SDS011;64760;53.404;23.498;2024-02-21T04:51:09;18.67;;;9.77;;
73593;SDS011;64760;53.404;23.498;2024-02-21T04:53:35;14.80;;;7.38;;
73593;SDS011;64760;53.404;23.498;2024-02-21T04:56:02;10.00;;;5.80;;
73593;SDS011;64760;53.404;23.498;2024-02-21T04:58:28;11.10;;;5.57;;
73593;SDS011;64760;53.404;23.498;2024-02-21T05:00:55;12.48;;;6.20;;
73593;SDS011;64760;53.404;23.498;2024-02-21T05:03:21;14.43;;;7.07;;
73593;SDS011;64760;53.404;23.498;2024-02-21T05:05:48;22.77;;;10.55;;
73593;SDS011;64760;53.404;23.498;2024-02-21T05:08:14;12.98;;;7.53;;
73593;SDS011;64760;53.404;23.498;2024-02-21T05:10:41;12.95;;;6.90;;
73593;SDS011;64760;53.404;23.498;2024-02-21T05:13:07;12.65;;;6.10;;
73593;SDS011;64760;53.404;23.498;2024-02-21T05:15:34;17.15;;;7.63;;
73593;SDS011;64760;53.404;23.498;2024-02-21T05:18:00;14.20;;;7.00;;
73593;SDS011;64760;53.404;23.498;2024-02-21T05:20:27;14.82;;;6.57;;
73593;SDS011;64760;53.404;23.498;2024-02-21T05:22:53;12.57;;;6.45;;
73593;SDS011;64760;53.404;23.498;2024-02-21T05:25:19;19.52;;;5.75;;
73593;SDS011;64760;53.404;23.498;2024-02-21T05:27:45;16.75;;;6.03;;
73593;SDS011;64760;53.404;23.498;2024-02-21T05:30:12;11.07;;;4.85;;
73593;SDS011;64760;53.404;23.498;2024-02-21T05:32:39;11.02;;;4.70;;
73593;SDS011;64760;53.404;23.498;2024-02-21T05:35:05;6.68;;;3.42;;
73593;SDS011;64760;53.404;23.498;2024-02-21T05:37:31;8.05;;;3.65;;
73593;SDS011;64760;53.404;23.498;2024-02-21T05:39:58;7.70;;;4.00;;
73593;SDS011;64760;53.404;23.498;2024-02-21T05:42:24;6.25;;;3.30;;
73593;SDS011;64760;53.404;23.498;2024-02-21T05:44:50;8.85;;;3.38;;
73593;SDS011;64760;53.404;23.498;2024-02-21T05:47:16;10.80;;;4.63;;
73593;SDS011;64760;53.404;23.498;2024-02-21T05:49:43;9.85;;;4.82;;
73593;SDS011;64760;53.404;23.498;2024-02-21T05:52:09;8.25;;;3.92;;
73593;SDS011;64760;53.404;23.498;2024-02-21T05:54:37;7.90;;;4.35;;
73593;SDS011;64760;53.404;23.498;2024-02-21T05:57:04;5.97;;;3.63;;
73593;SDS011;64760;53.404;23.498;2024-02-21T05:59:31;6.88;;;3.88;;
73593;SDS011;64760;53.404;23.498;2024-02-21T06:01:57;8.00;;;4.15;;
73593;SDS011;64760;53.404;23.498;2024-02-21T06:04:24;10.15;;;5.03;;
73593;SDS011;64760;53.404;23.498;2024-02-21T06:06:50;9.27;;;3.92;;
73593;SDS011;64760;53.404;23.498;2024-02-21T06:09:17;7.68;;;3.80;;
73593;SDS011;64760;53.404;23.498;2024-02-21T06:11:43;15.70;;;6.88;;
73593;SDS011;64760;53.404;23.498;2024-02-21T06:14:09;17.35;;;8.35;;
73593;SDS011;64760;53.404;23.498;2024-02-21T06:16:35;17.58;;;8.60;;
73593;SDS011;64760;53.404;23.498;2024-02-21T06:19:01;20.55;;;10.35;;
73593;SDS011;64760;53.404;23.498;2024-02-21T06:21:29;21.15;;;9.60;;
73593;SDS011;64760;53.404;23.498;2024-02-21T06:23:55;24.50;;;11.57;;
73593;SDS011;64760;53.404;23.498;2024-02-21T06:26:21;30.00;;;14.63;;
73593;SDS011;64760;53.404;23.498;2024-02-21T06:28:48;18.05;;;8.85;;
73593;SDS011;64760;53.404;23.498;2024-02-21T06:31:16;18.55;;;8.73;;
73593;SDS011;64760;53.404;23.498;2024-02-21T06:33:42;21.38;;;11.25;;
73593;SDS011;64760;53.404;23.498;2024-02-21T06:36:08;16.13;;;7.13;;
73593;SDS011;64760;53.404;23.498;2024-02-21T06:38:34;21.05;;;8.40;;
73593;SDS011;64760;53.404;23.498;2024-02-21T06:41:00;11.63;;;5.90;;
73593;SDS011;64760;53.404;23.498;2024-02-21T06:43:28;15.52;;;7.35;;
73593;SDS011;64760;53.404;23.498;2024-02-21T06:45:54;10.52;;;4.60;;
73593;SDS011;64760;53.404;23.498;2024-02-21T06:50:48;8.15;;;4.45;;
73593;SDS011;64760;53.404;23.498;2024-02-21T06:53:33;10.18;;;4.68;;
73593;SDS011;64760;53.404;23.498;2024-02-21T06:56:00;15.15;;;6.15;;
73593;SDS011;64760;53.404;23.498;2024-02-21T06:58:26;10.80;;;5.10;;
73593;SDS011;64760;53.404;23.498;2024-02-21T07:00:52;9.43;;;4.68;;
73593;SDS011;64760;53.404;23.498;2024-02-21T07:03:19;8.43;;;4.45;;
73593;SDS011;64760;53.404;23.498;2024-02-21T07:05:45;9.10;;;5.45;;
73593;SDS011;64760;53.404;23.498;2024-02-21T07:08:11;8.20;;;4.68;;
73593;SDS011;64760;53.404;23.498;2024-02-21T07:10:37;12.45;;;5.18;;
73593;SDS011;64760;53.404;23.498;2024-02-21T07:13:04;12.07;;;6.13;;
73593;SDS011;64760;53.404;23.498;2024-02-21T07:15:30;10.68;;;5.55;;
73593;SDS011;64760;53.404;23.498;2024-02-21T07:17:57;10.18;;;4.78;;
73593;SDS011;64760;53.404;23.498;2024-02-21T07:20:23;9.82;;;4.70;;
73593;SDS011;64760;53.404;23.498;2024-02-21T07:22:49;12.57;;;5.75;;
73593;SDS011;64760;53.404;23.498;2024-02-21T07:25:15;8.18;;;4.47;;
73593;SDS011;64760;53.404;23.498;2024-02-21T07:27:42;15.57;;;7.30;;
73593;SDS011;64760;53.404;23.498;2024-02-21T07:30:08;13.55;;;6.85;;
73593;SDS011;64760;53.404;23.498;2024-02-21T07:32:36;9.75;;;4.70;;
73593;SDS011;64760;53.404;23.498;2024-02-21T07:35:02;6.68;;;4.38;;
73593;SDS011;64760;53.404;23.498;2024-02-21T07:37:29;8.00;;;4.68;;
73593;SDS011;64760;53.404;23.498;2024-02-21T07:39:55;12.63;;;7.30;;
73593;SDS011;64760;53.404;23.498;2024-02-21T07:42:21;12.70;;;6.10;;
73593;SDS011;64760;53.404;23.498;2024-02-21T07:44:47;11.50;;;6.65;;
73593;SDS011;64760;53.404;23.498;2024-02-21T07:47:14;8.02;;;4.50;;
73593;SDS011;64760;53.404;23.498;2024-02-21T07:49:45;10.00;;;4.32;;
73593;SDS011;64760;53.404;23.498;2024-02-21T07:52:12;14.57;;;5.97;;
73593;SDS011;64760;53.404;23.498;2024-02-21T07:54:38;7.55;;;3.97;;
73593;SDS011;64760;53.404;23.498;2024-02-21T07:57:04;13.77;;;7.30;;
73593;SDS011;64760;53.404;23.498;2024-02-21T07:59:30;13.35;;;6.35;;
73593;SDS011;64760;53.404;23.498;2024-02-21T08:01:57;9.45;;;4.47;;
73593;SDS011;64760;53.404;23.498;2024-02-21T08:04:23;14.93;;;8.48;;
73593;SDS011;64760;53.404;23.498;2024-02-21T08:06:51;11.60;;;5.75;;
73593;SDS011;64760;53.404;23.498;2024-02-21T08:09:26;12.57;;;5.05;;
73593;SDS011;64760;53.404;23.498;2024-02-21T08:11:53;10.05;;;4.28;;
73593;SDS011;64760;53.404;23.498;2024-02-21T08:14:20;7.28;;;3.80;;
73593;SDS011;64760;53.404;23.498;2024-02-21T08:16:47;9.35;;;5.35;;
73593;SDS011;64760;53.404;23.498;2024-02-21T08:19:13;10.40;;;5.43;;
73593;SDS011;64760;53.404;23.498;2024-02-21T08:21:40;12.48;;;6.45;;
73593;SDS011;64760;53.404;23.498;2024-02-21T08:24:06;15.75;;;7.32;;
73593;SDS011;64760;53.404;23.498;2024-02-21T08:26:33;10.98;;;6.07;;
73593;SDS011;64760;53.404;23.498;2024-02-21T08:28:59;13.30;;;4.60;;
73593;SDS011;64760;53.404;23.498;2024-02-21T08:31:27;6.97;;;3.88;;
73593;SDS011;64760;53.404;23.498;2024-02-21T08:34:00;11.23;;;5.25;;
73593;SDS011;64760;53.404;23.498;2024-02-21T08:36:31;7.63;;;4.05;;
73593;SDS011;64760;53.404;23.498;2024-02-21T08:38:59;10.75;;;5.90;;
73593;SDS011;64760;53.404;23.498;2024-02-21T08:41:26;10.43;;;5.45;;
73593;SDS011;64760;53.404;23.498;2024-02-21T08:43:53;6.32;;;3.88;;
73593;SDS011;64760;53.404;23.498;2024-02-21T08:46:20;9.07;;;4.65;;
73593;SDS011;64760;53.404;23.498;2024-02-21T08:48:46;8.25;;;4.28;;
73593;SDS011;64760;53.404;23.498;2024-02-21T08:51:13;11.90;;;5.10;;
73593;SDS011;64760;53.404;23.498;2024-02-21T08:53:40;11.18;;;5.57;;
73593;SDS011;64760;53.404;23.498;2024-02-21T08:56:07;9.85;;;5.07;;
73593;SDS011;64760;53.404;23.498;2024-02-21T08:58:34;10.98;;;4.28;;
73593;SDS011;64760;53.404;23.498;2024-02-21T09:01:03;14.50;;;6.45;;
73593;SDS011;64760;53.404;23.498;2024-02-21T09:03:38;10.30;;;5.00;;
73593;SDS011;64760;53.404;23.498;2024-02-21T09:06:05;12.10;;;6.63;;
73593;SDS011;64760;53.404;23.498;2024-02-21T09:08:32;13.43;;;7.13;;
73593;SDS011;64760;53.404;23.498;2024-02-21T09:10:59;12.27;;;6.35;;
73593;SDS011;64760;53.404;23.498;2024-02-21T09:13:27;15.00;;;5.53;;
73593;SDS011;64760;53.404;23.498;2024-02-21T09:15:54;10.40;;;4.72;;
73593;SDS011;64760;53.404;23.498;2024-02-21T09:18:20;13.30;;;6.85;;
73593;SDS011;64760;53.404;23.498;2024-02-21T09:20:46;9.48;;;5.28;;
73593;SDS011;64760;53.404;23.498;2024-02-21T09:23:13;6.30;;;3.78;;
73593;SDS011;64760;53.404;23.498;2024-02-21T09:25:40;9.07;;;3.58;;
73593;SDS011;64760;53.404;23.498;2024-02-21T09:28:06;9.98;;;5.50;;
73593;SDS011;64760;53.404;23.498;2024-02-21T09:30:33;10.43;;;5.50;;
73593;SDS011;64760;53.404;23.498;2024-02-21T09:32:59;10.27;;;5.03;;
73593;SDS011;64760;53.404;23.498;2024-02-21T09:35:27;5.65;;;3.25;;
73593;SDS011;64760;53.404;23.498;2024-02-21T09:37:54;8.57;;;4.32;;
73593;SDS011;64760;53.404;23.498;2024-02-21T09:40:21;15.40;;;5.32;;
73593;SDS011;64760;53.404;23.498;2024-02-21T09:42:47;12.05;;;5.93;;
73593;SDS011;64760;53.404;23.498;2024-02-21T09:50:14;9.98;;;4.72;;
73593;SDS011;64760;53.404;23.498;2024-02-21T09:52:42;11.20;;;5.38;;
73593;SDS011;64760;53.404;23.498;2024-02-21T09:55:10;7.65;;;3.70;;
73593;SDS011;64760;53.404;23.498;2024-02-21T09:57:38;10.07;;;5.07;;
73593;SDS011;64760;53.404;23.498;2024-02-21T10:00:05;8.88;;;5.05;;
73593;SDS011;64760;53.404;23.498;2024-02-21T10:02:41;10.80;;;5.47;;
73593;SDS011;64760;53.404;23.498;2024-02-21T10:05:07;10.30;;;4.63;;
73593;SDS011;64760;53.404;23.498;2024-02-21T10:07:33;7.72;;;4.43;;
73593;SDS011;64760;53.404;23.498;2024-02-21T10:10:01;15.52;;;6.35;;
73593;SDS011;64760;53.404;23.498;2024-02-21T10:12:28;13.77;;;6.53;;
73593;SDS011;64760;53.404;23.498;2024-02-21T10:15:03;13.77;;;7.63;;
73593;SDS011;64760;53.404;23.498;2024-02-21T10:17:31;10.00;;;5.40;;
73593;SDS011;64760;53.404;23.498;2024-02-21T10:22:34;13.43;;;6.30;;
73593;SDS011;64760;53.404;23.498;2024-02-21T10:25:08;12.68;;;4.53;;
73593;SDS011;64760;53.404;23.498;2024-02-21T10:27:36;8.45;;;4.22;;
73593;SDS011;64760;53.404;23.498;2024-02-21T10:30:04;12.68;;;6.63;;
73593;SDS011;64760;53.404;23.498;2024-02-21T10:32:33;10.75;;;5.55;;
73593;SDS011;64760;53.404;23.498;2024-02-21T10:35:01;15.57;;;5.47;;
73593;SDS011;64760;53.404;23.498;2024-02-21T10:37:30;15.75;;;7.20;;
73593;SDS011;64760;53.404;23.498;2024-02-21T10:40:00;12.02;;;6.10;;
73593;SDS011;64760;53.404;23.498;2024-02-21T10:42:29;9.07;;;4.72;;
73593;SDS011;64760;53.404;23.498;2024-02-21T10:45:00;13.63;;;5.78;;
73593;SDS011;64760;53.404;23.498;2024-02-21T10:47:30;10.80;;;4.57;;
73593;SDS011;64760;53.404;23.498;2024-02-21T10:50:03;10.50;;;4.45;;
73593;SDS011;64760;53.404;23.498;2024-02-21T10:55:03;15.60;;;6.13;;
73593;SDS011;64760;53.404;23.498;2024-02-21T10:57:36;12.20;;;5.55;;
73593;SDS011;64760;53.404;23.498;2024-02-21T11:00:04;12.68;;;6.68;;
73593;SDS011;64760;53.404;23.498;2024-02-21T11:02:33;15.32;;;7.38;;
73593;SDS011;64760;53.404;23.498;2024-02-21T11:05:01;15.60;;;5.72;;
73593;SDS011;64760;53.404;23.498;2024-02-21T11:07:30;17.70;;;6.97;;
73593;SDS011;64760;53.404;23.498;2024-02-21T11:09:58;20.02;;;6.80;;
73593;SDS011;64760;53.404;23.498;2024-02-21T11:12:25;13.82;;;6.70;;
73593;SDS011;64760;53.404;23.498;2024-02-21T11:15:03;15.73;;;7.30;;
73593;SDS011;64760;53.404;23.498;2024-02-21T11:17:31;20.10;;;7.88;;
73593;SDS011;64760;53.404;23.498;2024-02-21T11:19:57;21.08;;;8.57;;
73593;SDS011;64760;53.404;23.498;2024-02-21T11:22:25;13.70;;;6.95;;
73593;SDS011;64760;53.404;23.498;2024-02-21T11:24:55;18.95;;;7.28;;
73593;SDS011;64760;53.404;23.498;2024-02-21T11:27:34;18.00;;;7.35;;
73593;SDS011;64760;53.404;23.498;2024-02-21T11:30:03;19.02;;;8.50;;
73593;SDS011;64760;53.404;23.498;2024-02-21T11:32:30;14.43;;;6.72;;
73593;SDS011;64760;53.404;23.498;2024-02-21T11:37:32;14.25;;;5.97;;
73593;SDS011;64760;53.404;23.498;2024-02-21T11:40:00;8.52;;;4.43;;
73593;SDS011;64760;53.404;23.498;2024-02-21T11:42:27;19.20;;;6.28;;
73593;SDS011;64760;53.404;23.498;2024-02-21T11:44:56;13.05;;;6.03;;
73593;SDS011;64760;53.404;23.498;2024-02-21T11:49:49;9.60;;;5.18;;
73593;SDS011;64760;53.404;23.498;2024-02-21T11:52:22;13.80;;;6.63;;
73593;SDS011;64760;53.404;23.498;2024-02-21T11:54:51;15.65;;;7.57;;
73593;SDS011;64760;53.404;23.498;2024-02-21T11:57:23;14.70;;;6.97;;
73593;SDS011;64760;53.404;23.498;2024-02-21T11:59:51;16.88;;;6.53;;
73593;SDS011;64760;53.404;23.498;2024-02-21T12:02:18;15.43;;;6.82;;
73593;SDS011;64760;53.404;23.498;2024-02-21T12:04:44;14.93;;;7.47;;
73593;SDS011;64760;53.404;23.498;2024-02-21T12:07:11;14.32;;;6.00;;
73593;SDS011;64760;53.404;23.498;2024-02-21T12:09:37;14.93;;;7.50;;
73593;SDS011;64760;53.404;23.498;2024-02-21T12:12:04;16.13;;;8.20;;
73593;SDS011;64760;53.404;23.498;2024-02-21T12:14:32;13.68;;;6.55;;
73593;SDS011;64760;53.404;23.498;2024-02-21T12:17:00;14.50;;;6.50;;
73593;SDS011;64760;53.404;23.498;2024-02-21T12:19:30;14.75;;;6.07;;
73593;SDS011;64760;53.404;23.498;2024-02-21T12:21:58;11.13;;;6.07;;
73593;SDS011;64760;53.404;23.498;2024-02-21T12:24:26;12.95;;;7.35;;
73593;SDS011;64760;53.404;23.498;2024-02-21T12:26:53;11.55;;;5.22;;
73593;SDS011;64760;53.404;23.498;2024-02-21T12:29:21;9.40;;;4.43;;
73593;SDS011;64760;53.404;23.498;2024-02-21T12:31:47;13.25;;;6.47;;
73593;SDS011;64760;53.404;23.498;2024-02-21T12:34:14;13.02;;;6.72;;
73593;SDS011;64760;53.404;23.498;2024-02-21T12:36:42;10.52;;;5.10;;
73593;SDS011;64760;53.404;23.498;2024-02-21T12:39:10;15.70;;;5.78;;
73593;SDS011;64760;53.404;23.498;2024-02-21T12:41:36;11.57;;;6.05;;
73593;SDS011;64760;53.404;23.498;2024-02-21T12:44:10;15.45;;;6.28;;
73593;SDS011;64760;53.404;23.498;2024-02-21T12:49:06;20.50;;;8.75;;
73593;SDS011;64760;53.404;23.498;2024-02-21T12:54:00;9.40;;;5.38;;
73593;SDS011;64760;53.404;23.498;2024-02-21T12:56:28;25.77;;;9.57;;
73593;SDS011;64760;53.404;23.498;2024-02-21T12:58:57;18.40;;;8.98;;
73593;SDS011;64760;53.404;23.498;2024-02-21T13:01:23;24.15;;;10.20;;
73593;SDS011;64760;53.404;23.498;2024-02-21T13:03:50;15.77;;;8.00;;
73593;SDS011;64760;53.404;23.498;2024-02-21T13:06:16;16.63;;;7.75;;
73593;SDS011;64760;53.404;23.498;2024-02-21T13:08:45;21.83;;;9.65;;
73593;SDS011;64760;53.404;23.498;2024-02-21T13:11:12;20.98;;;9.95;;
73593;SDS011;64760;53.404;23.498;2024-02-21T13:13:39;23.92;;;10.07;;
73593;SDS011;64760;53.404;23.498;2024-02-21T13:16:05;19.85;;;10.27;;
73593;SDS011;64760;53.404;23.498;2024-02-21T13:18:32;28.17;;;13.00;;
73593;SDS011;64760;53.404;23.498;2024-02-21T13:20:58;24.23;;;10.68;;
73593;SDS011;64760;53.404;23.498;2024-02-21T13:23:25;13.70;;;7.32;;
73593;SDS011;64760;53.404;23.498;2024-02-21T13:25:51;12.90;;;5.60;;
73593;SDS011;64760;53.404;23.498;2024-02-21T13:28:17;16.75;;;8.02;;
73593;SDS011;64760;53.404;23.498;2024-02-21T13:30:44;22.23;;;9.63;;
73593;SDS011;64760;53.404;23.498;2024-02-21T13:33:10;21.17;;;9.52;;
73593;SDS011;64760;53.404;23.498;2024-02-21T13:35:37;21.65;;;9.82;;
73593;SDS011;64760;53.404;23.498;2024-02-21T13:40:32;15.40;;;7.15;;
73593;SDS011;64760;53.404;23.498;2024-02-21T13:42:59;14.13;;;6.72;;
73593;SDS011;64760;53.404;23.498;2024-02-21T13:45:25;14.90;;;6.38;;
73593;SDS011;64760;53.404;23.498;2024-02-21T13:47:57;17.40;;;7.63;;
73593;SDS011;64760;53.404;23.498;2024-02-21T13:50:29;11.57;;;6.32;;
73593;SDS011;64760;53.404;23.498;2024-02-21T13:52:57;13.85;;;6.63;;
73593;SDS011;64760;53.404;23.498;2024-02-21T13:55:24;13.05;;;7.07;;
73593;SDS011;64760;53.404;23.498;2024-02-21T13:57:54;18.20;;;7.72;;
73593;SDS011;64760;53.404;23.498;2024-02-21T14:00:21;16.75;;;8.82;;
73593;SDS011;64760;53.404;23.498;2024-02-21T14:02:48;20.25;;;8.95;;
73593;SDS011;64760;53.404;23.498;2024-02-21T14:05:14;19.42;;;9.45;;
73593;SDS011;64760;53.404;23.498;2024-02-21T14:07:40;16.83;;;8.73;;
73593;SDS011;64760;53.404;23.498;2024-02-21T14:10:06;21.88;;;9.45;;
73593;SDS011;64760;53.404;23.498;2024-02-21T14:12:35;14.48;;;6.75;;
73593;SDS011;64760;53.404;23.498;2024-02-21T14:15:01;15.27;;;6.60;;
73593;SDS011;64760;53.404;23.498;2024-02-21T14:17:27;20.70;;;7.90;;
73593;SDS011;64760;53.404;23.498;2024-02-21T14:19:53;30.30;;;11.75;;
73593;SDS011;64760;53.404;23.498;2024-02-21T14:22:20;26.02;;;11.70;;
73593;SDS011;64760;53.404;23.498;2024-02-21T14:24:46;22.58;;;10.93;;
73593;SDS011;64760;53.404;23.498;2024-02-21T14:27:16;15.63;;;6.53;;
73593;SDS011;64760;53.404;23.498;2024-02-21T14:29:42;22.15;;;9.85;;
73593;SDS011;64760;53.404;23.498;2024-02-21T14:32:08;15.35;;;7.47;;
73593;SDS011;64760;53.404;23.498;2024-02-21T14:34:36;21.05;;;9.85;;
73593;SDS011;64760;53.404;23.498;2024-02-21T14:37:02;20.83;;;9.95;;
73593;SDS011;64760;53.404;23.498;2024-02-21T14:39:29;20.17;;;10.20;;
73593;SDS011;64760;53.404;23.498;2024-02-21T14:41:56;20.90;;;10.52;;
73593;SDS011;64760;53.404;23.498;2024-02-21T14:44:22;18.75;;;9.13;;
73593;SDS011;64760;53.404;23.498;2024-02-21T14:46:48;16.67;;;9.00;;
73593;SDS011;64760;53.404;23.498;2024-02-21T14:49:15;15.95;;;8.02;;
73593;SDS011;64760;53.404;23.498;2024-02-21T14:51:42;19.45;;;9.30;;
73593;SDS011;64760;53.404;23.498;2024-02-21T14:54:08;13.77;;;7.45;;
73593;SDS011;64760;53.404;23.498;2024-02-21T14:56:35;18.00;;;8.48;;